Time;durP1;ratioP1;P1;durP2;ratioP2;P2;SDS_P1;SDS_P2;PMS_P1;PMS_P2;Temp;Humidity;BMP_temperature;BMP_pressure;BME280_temperature;BME280_humidity;BME280_pressure;Samples;Min_cycle;Max_cycle;Signal;HPM_P1;HPM_P2
2023/04/17 00:02:18;;;;;;;28.80;19.48;;;8.00;99.90;;;;;;5147316;27;20462;-70
2023/04/17 00:04:44;;;;;;;28.08;19.42;;;8.00;99.90;;;;;;5114746;27;20046;-70
2023/04/17 00:07:10;;;;;;;31.60;20.95;;;8.00;99.90;;;;;;5143030;27;20115;-68
2023/04/17 00:09:36;;;;;;;29.80;20.08;;;8.00;99.90;;;;;;5107935;27;20039;-68
2023/04/17 00:12:02;;;;;;;28.98;19.95;;;8.00;99.90;;;;;;5108952;27;20039;-65
2023/04/17 00:14:28;;;;;;;27.60;19.60;;;8.00;99.90;;;;;;5099530;27;20085;-66
2023/04/17 00:16:53;;;;;;;28.80;19.30;;;8.00;99.90;;;;;;5109947;27;20031;-68
2023/04/17 00:19:19;;;;;;;30.77;20.13;;;8.00;99.90;;;;;;5134531;27;20071;-67
2023/04/17 00:21:45;;;;;;;30.17;19.92;;;8.00;99.90;;;;;;5109383;27;20477;-69
2023/04/17 00:24:12;;;;;;;27.35;18.30;;;8.00;99.90;;;;;;5112920;27;20076;-68
2023/04/17 00:26:38;;;;;;;27.85;18.65;;;7.90;99.90;;;;;;5098086;27;20047;-67
2023/04/17 00:29:03;;;;;;;28.92;18.35;;;8.00;99.90;;;;;;5120473;27;20092;-65
2023/04/17 00:31:29;;;;;;;28.90;19.50;;;8.00;99.90;;;;;;5109496;27;20043;-67
2023/04/17 00:33:55;;;;;;;30.05;19.58;;;8.00;99.90;;;;;;5114528;27;20101;-67
2023/04/17 00:36:20;;;;;;;29.70;19.95;;;7.90;99.90;;;;;;5113448;27;20125;-67
2023/04/17 00:38:46;;;;;;;28.35;19.40;;;7.90;99.90;;;;;;5112810;27;20110;-65
2023/04/17 00:41:11;;;;;;;34.33;20.15;;;7.90;99.90;;;;;;5129370;27;20035;-67
2023/04/17 00:43:38;;;;;;;28.45;19.27;;;7.90;99.90;;;;;;5111010;27;20405;-66
2023/04/17 00:46:04;;;;;;;29.98;20.15;;;7.80;99.90;;;;;;5109125;27;20133;-69
2023/04/17 00:48:31;;;;;;;29.77;19.70;;;7.90;99.90;;;;;;5129517;27;20074;-66
2023/04/17 00:51:01;;;;;;;29.70;19.20;;;7.90;99.90;;;;;;5096238;27;20454;-69
2023/04/17 00:53:29;;;;;;;27.48;19.20;;;7.90;99.90;;;;;;5115591;27;20088;-64
2023/04/17 00:55:56;;;;;;;30.50;20.13;;;7.90;99.90;;;;;;5093603;28;20117;-66
2023/04/17 00:58:22;;;;;;;28.52;18.95;;;7.90;99.90;;;;;;5145353;27;20061;-67
2023/04/17 01:00:48;;;;;;;29.70;20.00;;;7.90;99.90;;;;;;5106913;27;20454;-68
2023/04/17 01:03:15;;;;;;;31.27;20.10;;;7.80;99.90;;;;;;5109876;27;20038;-67
2023/04/17 01:05:47;;;;;;;32.20;21.40;;;7.90;99.90;;;;;;5106889;28;20062;-69
2023/04/17 01:08:14;;;;;;;32.03;21.23;;;7.80;99.90;;;;;;5140765;27;20502;-69
2023/04/17 01:10:40;;;;;;;31.55;21.10;;;7.80;99.90;;;;;;5106215;28;20081;-67
2023/04/17 01:13:07;;;;;;;29.50;20.25;;;7.80;99.90;;;;;;5139767;27;20031;-65
2023/04/17 01:15:33;;;;;;;32.58;21.27;;;7.80;99.90;;;;;;5108700;28;20036;-63
2023/04/17 01:17:59;;;;;;;33.78;21.42;;;7.80;99.90;;;;;;5112369;27;20028;-69
2023/04/17 01:20:29;;;;;;;34.40;22.20;;;7.80;99.90;;;;;;5110698;27;20367;-67
2023/04/17 01:22:56;;;;;;;30.95;21.15;;;7.80;99.90;;;;;;5108200;27;20035;-67
2023/04/17 01:25:23;;;;;;;34.67;22.42;;;7.90;99.90;;;;;;5111195;27;20463;-67
2023/04/17 01:27:48;;;;;;;36.15;22.17;;;7.90;99.90;;;;;;5092525;27;20083;-67
2023/04/17 01:30:14;;;;;;;34.50;22.52;;;7.90;99.90;;;;;;5111989;27;20070;-67
2023/04/17 01:32:40;;;;;;;34.30;22.70;;;7.90;99.90;;;;;;5109148;27;20047;-67
2023/04/17 01:35:06;;;;;;;34.03;22.63;;;7.80;99.90;;;;;;5117535;27;20092;-69
2023/04/17 01:37:32;;;;;;;35.00;22.52;;;7.80;99.90;;;;;;5094714;28;20039;-68
2023/04/17 01:39:58;;;;;;;37.40;23.20;;;7.80;99.90;;;;;;5110813;27;20378;-66
2023/04/17 01:42:24;;;;;;;35.30;22.90;;;7.80;99.90;;;;;;5112257;27;20390;-65
2023/04/17 01:44:50;;;;;;;37.90;23.42;;;7.80;99.90;;;;;;5114506;27;20043;-66
2023/04/17 01:47:16;;;;;;;40.88;23.73;;;7.80;99.90;;;;;;5110403;27;20039;-65
2023/04/17 01:49:41;;;;;;;36.50;23.92;;;7.90;99.90;;;;;;5113373;27;20031;-65
2023/04/17 01:52:07;;;;;;;38.30;23.27;;;7.90;99.90;;;;;;5113745;27;20494;-66
2023/04/17 01:54:32;;;;;;;39.13;23.92;;;7.90;99.90;;;;;;5091641;28;20054;-68
2023/04/17 01:56:58;;;;;;;39.45;24.05;;;7.90;99.90;;;;;;5109259;27;20067;-66
2023/04/17 01:59:24;;;;;;;42.42;24.70;;;7.90;99.90;;;;;;5112007;28;20031;-65
2023/04/17 02:01:51;;;;;;;41.80;25.92;;;7.90;99.90;;;;;;5112383;27;20036;-68
2023/04/17 02:04:16;;;;;;;40.88;25.13;;;7.90;99.90;;;;;;5108800;27;20040;-68
2023/04/17 02:06:42;;;;;;;41.88;25.08;;;7.80;99.90;;;;;;5112889;27;20086;-68
2023/04/17 02:09:08;;;;;;;41.55;25.30;;;7.80;99.90;;;;;;5111144;27;20104;-66
2023/04/17 02:11:34;;;;;;;41.35;25.05;;;7.80;99.90;;;;;;5093065;28;20048;-68
2023/04/17 02:14:00;;;;;;;44.08;25.42;;;7.90;99.90;;;;;;5106494;27;20051;-69
2023/04/17 02:16:27;;;;;;;42.67;25.70;;;7.80;99.90;;;;;;5105670;27;20027;-69
2023/04/17 02:18:53;;;;;;;46.90;26.60;;;7.80;99.90;;;;;;5099216;27;20044;-69
2023/04/17 02:21:20;;;;;;;44.72;26.85;;;7.80;99.90;;;;;;5101804;27;20505;-69
2023/04/17 02:23:46;;;;;;;43.55;25.85;;;7.80;99.90;;;;;;5109557;27;20120;-65
2023/04/17 02:26:11;;;;;;;45.97;27.20;;;7.90;99.90;;;;;;5104442;27;20046;-68
2023/04/17 02:28:37;;;;;;;46.92;27.48;;;7.80;99.90;;;;;;5101815;27;20031;-69
2023/04/17 02:31:07;;;;;;;47.03;26.70;;;7.80;99.90;;;;;;5099507;27;20081;-67
2023/04/17 02:33:37;;;;;;;42.78;25.88;;;7.80;99.90;;;;;;5101132;27;20078;-67
2023/04/17 02:36:05;;;;;;;43.70;26.65;;;7.80;99.90;;;;;;5137136;27;20114;-65
2023/04/17 02:38:30;;;;;;;50.17;28.05;;;7.80;99.90;;;;;;5108077;27;20035;-65
2023/04/17 02:40:57;;;;;;;47.20;27.70;;;7.90;99.90;;;;;;5106470;27;20039;-68
2023/04/17 02:43:23;;;;;;;44.00;27.80;;;7.90;99.90;;;;;;5106419;27;20944;-67
2023/04/17 02:45:49;;;;;;;45.63;26.88;;;7.90;99.90;;;;;;5111603;27;20429;-68
2023/04/17 02:48:15;;;;;;;44.45;27.20;;;7.90;99.90;;;;;;5128108;27;20040;-65
2023/04/17 02:50:40;;;;;;;41.53;25.70;;;7.90;99.90;;;;;;5110463;28;20054;-66
2023/04/17 02:53:06;;;;;;;43.55;26.25;;;7.90;99.90;;;;;;5112506;27;20051;-68
2023/04/17 02:55:31;;;;;;;44.72;26.58;;;8.00;99.90;;;;;;5110715;27;20035;-67
2023/04/17 02:57:57;;;;;;;47.10;27.98;;;8.00;99.90;;;;;;5103060;27;20039;-67
2023/04/17 03:00:23;;;;;;;45.78;27.73;;;8.00;99.90;;;;;;5093059;27;20035;-67
2023/04/17 03:02:48;;;;;;;43.72;27.42;;;8.00;99.90;;;;;;5107255;27;20483;-67
2023/04/17 03:05:16;;;;;;;46.58;28.40;;;8.00;99.90;;;;;;5115102;27;20066;-66
2023/04/17 03:07:42;;;;;;;44.28;28.08;;;8.00;99.90;;;;;;5108542;27;20051;-67
2023/04/17 03:10:08;;;;;;;49.40;28.77;;;8.00;99.90;;;;;;5111222;27;20383;-66
2023/04/17 03:12:34;;;;;;;46.47;28.50;;;8.00;99.90;;;;;;5094651;27;20042;-67
2023/04/17 03:14:59;;;;;;;50.10;29.08;;;8.00;99.90;;;;;;5148816;27;20489;-68
2023/04/17 03:17:25;;;;;;;43.97;27.33;;;8.00;99.90;;;;;;5111863;27;20031;-68
2023/04/17 03:19:51;;;;;;;46.95;28.17;;;8.00;99.90;;;;;;5146315;27;20047;-68
2023/04/17 03:22:16;;;;;;;43.97;27.42;;;8.00;99.90;;;;;;5094088;27;20073;-66
2023/04/17 03:24:42;;;;;;;46.10;28.80;;;8.00;99.90;;;;;;5089093;27;21503;-68
2023/04/17 03:27:08;;;;;;;44.42;26.92;;;8.00;99.90;;;;;;5139434;27;20043;-64
2023/04/17 03:29:34;;;;;;;41.35;26.60;;;8.00;99.90;;;;;;5106705;27;20435;-66
2023/04/17 03:31:59;;;;;;;43.63;27.27;;;8.00;99.90;;;;;;5113651;27;20417;-69
2023/04/17 03:34:25;;;;;;;45.42;27.45;;;8.00;99.90;;;;;;5110395;27;20613;-68
2023/04/17 03:36:51;;;;;;;47.95;28.52;;;8.00;99.90;;;;;;5131784;27;20033;-71
2023/04/17 03:39:17;;;;;;;41.65;26.83;;;8.00;99.90;;;;;;5096888;27;20110;-65
2023/04/17 03:41:42;;;;;;;41.88;27.20;;;8.10;99.90;;;;;;5112023;27;20053;-69
2023/04/17 03:44:08;;;;;;;47.45;28.08;;;8.10;99.90;;;;;;5091426;27;20054;-69
2023/04/17 03:46:34;;;;;;;38.90;26.05;;;8.10;99.90;;;;;;5119464;27;20054;-68
2023/04/17 03:49:00;;;;;;;45.42;28.33;;;8.10;99.90;;;;;;5110143;27;20047;-64
2023/04/17 03:51:26;;;;;;;45.45;29.17;;;8.10;99.90;;;;;;5113427;27;20042;-67
2023/04/17 03:53:52;;;;;;;43.45;27.65;;;8.10;99.90;;;;;;5099175;27;20039;-68
2023/04/17 03:56:18;;;;;;;43.35;27.23;;;8.00;99.90;;;;;;5112762;27;20053;-69
2023/04/17 03:58:44;;;;;;;45.85;29.08;;;8.00;99.90;;;;;;5112391;27;20409;-65
2023/04/17 04:01:11;;;;;;;44.40;28.10;;;8.00;99.90;;;;;;5126430;27;20039;-67
2023/04/17 04:03:37;;;;;;;47.42;28.67;;;8.00;99.90;;;;;;5108227;27;20102;-70
2023/04/17 04:06:02;;;;;;;41.28;25.77;;;8.00;99.90;;;;;;5130375;27;20079;-70
2023/04/17 04:08:28;;;;;;;43.75;28.05;;;8.00;99.90;;;;;;5110897;27;20126;-64
2023/04/17 04:10:54;;;;;;;46.30;27.73;;;7.90;99.90;;;;;;5104593;27;20057;-66
2023/04/17 04:13:19;;;;;;;45.55;28.50;;;7.90;99.90;;;;;;5108042;27;20039;-67
2023/04/17 04:15:45;;;;;;;43.95;27.42;;;7.90;99.90;;;;;;5109915;27;20040;-68
2023/04/17 04:18:11;;;;;;;46.30;29.13;;;7.90;99.90;;;;;;5145940;27;20038;-68
2023/04/17 04:20:36;;;;;;;44.47;28.20;;;7.90;99.90;;;;;;5108648;27;20659;-66
2023/04/17 04:23:03;;;;;;;44.60;27.90;;;7.90;99.90;;;;;;5110803;27;20046;-66
2023/04/17 04:25:29;;;;;;;44.50;27.83;;;7.90;99.90;;;;;;5111431;27;20514;-69
2023/04/17 04:27:55;;;;;;;46.15;27.92;;;7.90;99.90;;;;;;5138970;27;20043;-66
2023/04/17 04:30:24;;;;;;;43.70;27.95;;;7.90;99.90;;;;;;5117649;27;20042;-64
2023/04/17 04:32:50;;;;;;;43.53;27.42;;;7.90;99.90;;;;;;5140650;27;20089;-67
2023/04/17 04:35:16;;;;;;;40.38;25.23;;;7.90;99.90;;;;;;5115593;27;20084;-67
2023/04/17 04:37:41;;;;;;;43.08;26.95;;;7.90;99.90;;;;;;5091832;27;20034;-67
2023/04/17 04:40:11;;;;;;;39.88;25.60;;;7.90;99.90;;;;;;5108709;27;20758;-64
2023/04/17 04:42:38;;;;;;;44.95;27.05;;;7.90;99.90;;;;;;5112877;28;20030;-66
2023/04/17 04:45:05;;;;;;;43.63;27.23;;;7.90;99.90;;;;;;5109183;28;20505;-65
2023/04/17 04:47:31;;;;;;;44.30;27.90;;;8.00;99.90;;;;;;5113428;27;20047;-66
2023/04/17 04:49:57;;;;;;;41.25;26.40;;;8.00;99.90;;;;;;5094554;27;20039;-66
2023/04/17 04:52:22;;;;;;;41.60;25.63;;;8.00;99.90;;;;;;5116472;27;20439;-64
2023/04/17 04:54:48;;;;;;;44.63;28.00;;;8.00;99.90;;;;;;5113188;27;20053;-67
2023/04/17 04:57:14;;;;;;;40.42;26.25;;;8.00;99.90;;;;;;5114174;27;20033;-64
2023/04/17 04:59:39;;;;;;;41.55;26.73;;;8.00;99.90;;;;;;5115422;27;20039;-66
2023/04/17 05:02:05;;;;;;;40.05;26.80;;;8.00;99.90;;;;;;5115523;27;20449;-65
2023/04/17 05:04:31;;;;;;;36.40;24.67;;;8.00;99.90;;;;;;5113045;27;20096;-66
2023/04/17 05:06:56;;;;;;;38.17;24.75;;;8.00;99.90;;;;;;5129873;27;20062;-67
2023/04/17 05:09:22;;;;;;;37.13;24.42;;;8.00;99.90;;;;;;5133207;27;20117;-65
2023/04/17 05:11:48;;;;;;;38.15;25.48;;;7.90;99.90;;;;;;5115251;27;20505;-65
2023/04/17 05:14:13;;;;;;;41.38;26.63;;;7.90;99.90;;;;;;5115479;27;20037;-66
2023/04/17 05:16:40;;;;;;;40.42;25.77;;;7.90;99.90;;;;;;5113611;27;20038;-65
2023/04/17 05:19:05;;;;;;;39.05;24.98;;;7.90;99.90;;;;;;5115828;27;20039;-65
2023/04/17 05:21:31;;;;;;;39.53;24.38;;;7.80;99.90;;;;;;5113813;27;20042;-68
2023/04/17 05:23:57;;;;;;;40.53;25.08;;;7.90;99.90;;;;;;5133356;27;20043;-65
2023/04/17 05:26:23;;;;;;;36.63;24.15;;;7.90;99.90;;;;;;5113376;27;20095;-68
2023/04/17 05:28:49;;;;;;;41.10;25.73;;;7.90;99.90;;;;;;5114029;27;20455;-69
2023/04/17 05:31:15;;;;;;;41.08;25.17;;;7.90;99.90;;;;;;5115651;27;20042;-66
2023/04/17 05:33:41;;;;;;;35.38;23.58;;;7.90;99.90;;;;;;5132306;27;20070;-68
2023/04/17 05:36:07;;;;;;;36.38;24.33;;;8.00;99.90;;;;;;5113387;27;20077;-63
2023/04/17 05:38:32;;;;;;;32.97;22.13;;;8.00;99.90;;;;;;5113799;27;21001;-65
2023/04/17 05:40:58;;;;;;;36.75;23.75;;;8.00;99.90;;;;;;5114511;27;20050;-66
2023/04/17 05:43:24;;;;;;;32.45;22.67;;;8.00;99.90;;;;;;5114329;27;20044;-68
2023/04/17 05:45:49;;;;;;;32.85;22.77;;;8.00;99.90;;;;;;5114678;27;20031;-66
2023/04/17 05:48:15;;;;;;;33.10;21.40;;;7.90;99.90;;;;;;5114800;27;20042;-67
2023/04/17 05:50:41;;;;;;;35.15;23.63;;;7.90;99.90;;;;;;5125024;27;20486;-68
2023/04/17 05:53:06;;;;;;;35.58;23.25;;;8.00;99.90;;;;;;5112335;27;20043;-68
2023/04/17 05:55:32;;;;;;;34.83;23.88;;;8.00;99.90;;;;;;5113066;27;20131;-68
2023/04/17 05:57:58;;;;;;;35.13;24.80;;;8.00;99.90;;;;;;5116390;27;20031;-66
2023/04/17 06:00:23;;;;;;;32.63;23.05;;;8.00;99.90;;;;;;5114760;27;20572;-66
2023/04/17 06:02:49;;;;;;;33.90;23.75;;;7.90;99.90;;;;;;5112039;27;20047;-68
2023/04/17 06:05:16;;;;;;;34.88;23.85;;;7.90;99.90;;;;;;5115704;27;20058;-65
2023/04/17 06:07:42;;;;;;;33.88;23.20;;;7.90;99.90;;;;;;5115815;27;20155;-64
2023/04/17 06:10:09;;;;;;;32.72;22.38;;;7.90;99.90;;;;;;5114963;27;20082;-65
2023/04/17 06:12:36;;;;;;;34.83;22.77;;;7.90;99.90;;;;;;5114909;27;20103;-64
2023/04/17 06:15:03;;;;;;;35.13;22.15;;;7.90;99.90;;;;;;5149372;27;20377;-66
2023/04/17 06:17:29;;;;;;;44.47;23.27;;;7.80;99.90;;;;;;5115382;27;20554;-65
2023/04/17 06:19:55;;;;;;;40.65;22.30;;;7.80;99.90;;;;;;5114918;27;20201;-64
2023/04/17 06:22:21;;;;;;;43.97;22.42;;;7.80;99.90;;;;;;5115233;27;20110;-65
2023/04/17 06:24:47;;;;;;;40.25;21.55;;;7.80;99.90;;;;;;5114540;27;20081;-66
2023/04/17 06:27:12;;;;;;;33.90;20.27;;;7.90;99.90;;;;;;5114853;27;20405;-66
2023/04/17 06:29:38;;;;;;;41.97;21.33;;;7.90;99.90;;;;;;5114555;27;20042;-70
2023/04/17 06:32:05;;;;;;;33.05;20.27;;;7.90;99.90;;;;;;5097677;27;20058;-66
2023/04/17 06:34:31;;;;;;;30.52;19.52;;;7.90;99.90;;;;;;5114400;27;20053;-64
2023/04/17 06:36:58;;;;;;;36.58;20.60;;;7.90;99.90;;;;;;5114485;27;20100;-64
2023/04/17 06:39:23;;;;;;;40.80;20.48;;;8.00;99.90;;;;;;5114608;27;20390;-66
2023/04/17 06:41:49;;;;;;;31.48;19.55;;;8.00;99.90;;;;;;5114657;27;20039;-65
2023/04/17 06:44:15;;;;;;;24.60;18.48;;;8.10;99.90;;;;;;5114030;27;20047;-65
2023/04/17 06:46:41;;;;;;;26.27;18.70;;;8.10;99.90;;;;;;5114821;27;20497;-64
2023/04/17 06:49:06;;;;;;;28.60;20.58;;;8.10;99.90;;;;;;5114378;27;20043;-65
2023/04/17 06:51:32;;;;;;;30.92;20.77;;;8.20;99.90;;;;;;5114637;27;20103;-66
2023/04/17 06:53:58;;;;;;;25.48;19.38;;;8.20;99.90;;;;;;5132826;27;20077;-66
2023/04/17 06:56:24;;;;;;;30.63;20.92;;;8.30;99.90;;;;;;5113571;27;20122;-65
2023/04/17 06:58:51;;;;;;;28.30;20.30;;;8.30;99.90;;;;;;5114693;27;20570;-65
2023/04/17 07:01:17;;;;;;;30.23;21.48;;;8.40;99.90;;;;;;5113975;27;20047;-66
2023/04/17 07:03:42;;;;;;;29.85;20.83;;;8.40;99.90;;;;;;5114463;27;20033;-68
2023/04/17 07:06:08;;;;;;;30.88;20.67;;;8.50;99.90;;;;;;5113419;27;20716;-66
2023/04/17 07:08:34;;;;;;;25.80;19.83;;;8.40;99.90;;;;;;5114062;27;20196;-66
2023/04/17 07:11:01;;;;;;;29.55;21.08;;;8.40;99.90;;;;;;5114006;27;20043;-66
2023/04/17 07:13:30;;;;;;;29.40;20.42;;;8.40;99.90;;;;;;5112259;27;20042;-64
2023/04/17 07:15:56;;;;;;;29.45;20.38;;;8.40;99.90;;;;;;5113186;27;20531;-67
2023/04/17 07:18:24;;;;;;;30.17;21.35;;;8.40;99.90;;;;;;5111932;27;20042;-67
2023/04/17 07:20:50;;;;;;;30.73;20.88;;;8.40;99.90;;;;;;5112752;27;20035;-65
2023/04/17 07:23:16;;;;;;;30.70;21.52;;;8.40;99.90;;;;;;5113388;27;20036;-66
2023/04/17 07:25:42;;;;;;;30.15;20.63;;;8.40;99.90;;;;;;5096795;27;20080;-67
2023/04/17 07:28:08;;;;;;;33.60;21.40;;;8.50;99.90;;;;;;5131781;27;20443;-66
2023/04/17 07:30:34;;;;;;;31.55;22.10;;;8.50;99.90;;;;;;5113797;27;20100;-67
2023/04/17 07:33:00;;;;;;;32.60;23.08;;;8.50;99.90;;;;;;5096495;27;20126;-68
2023/04/17 07:35:26;;;;;;;30.80;21.52;;;8.60;99.90;;;;;;5113342;27;20043;-68
2023/04/17 07:37:52;;;;;;;28.25;20.65;;;8.60;99.90;;;;;;5113147;27;20085;-65
2023/04/17 07:40:18;;;;;;;31.70;22.45;;;8.70;99.90;;;;;;5147987;27;20066;-68
2023/04/17 07:42:44;;;;;;;27.95;20.80;;;8.80;99.90;;;;;;5113250;27;20166;-68
2023/04/17 07:45:10;;;;;;;31.08;21.02;;;9.00;99.90;;;;;;5113399;27;20047;-66
2023/04/17 07:47:36;;;;;;;34.45;22.92;;;9.10;99.90;;;;;;5113082;27;20429;-62
2023/04/17 07:50:02;;;;;;;34.63;22.15;;;9.20;99.90;;;;;;5113030;27;20508;-66
2023/04/17 07:52:28;;;;;;;34.55;23.40;;;9.20;99.90;;;;;;5113110;27;20043;-64
2023/04/17 07:54:57;;;;;;;33.92;22.17;;;9.30;99.90;;;;;;5131298;27;20134;-67
2023/04/17 07:57:25;;;;;;;31.52;22.23;;;9.40;99.90;;;;;;5112198;27;20047;-66
2023/04/17 07:59:52;;;;;;;31.23;22.60;;;9.40;99.90;;;;;;5111866;27;20082;-65
2023/04/17 08:02:18;;;;;;;33.63;23.00;;;9.40;99.90;;;;;;5113313;27;20096;-68
2023/04/17 08:04:44;;;;;;;30.90;22.77;;;9.50;99.90;;;;;;5112542;27;20058;-67
2023/04/17 08:07:11;;;;;;;31.45;21.98;;;9.40;99.90;;;;;;5113029;27;20043;-66
2023/04/17 08:09:37;;;;;;;34.28;22.95;;;9.50;99.90;;;;;;5112635;27;20043;-71
2023/04/17 08:12:04;;;;;;;32.60;22.67;;;9.60;99.90;;;;;;5112994;27;20046;-66
2023/04/17 08:14:30;;;;;;;31.73;22.10;;;9.80;99.90;;;;;;5112952;27;20401;-65
2023/04/17 08:16:56;;;;;;;33.70;22.77;;;9.80;99.90;;;;;;5112900;27;20031;-66
2023/04/17 08:19:21;;;;;;;31.25;22.48;;;9.80;99.90;;;;;;5112973;27;20031;-66
2023/04/17 08:21:48;;;;;;;30.38;22.23;;;9.80;99.90;;;;;;5112787;27;20031;-67
2023/04/17 08:24:14;;;;;;;32.83;22.88;;;10.00;99.90;;;;;;5113230;27;20130;-67
2023/04/17 08:26:40;;;;;;;30.48;21.98;;;10.10;99.90;;;;;;5094947;27;20130;-65
2023/04/17 08:29:06;;;;;;;31.35;22.92;;;10.30;99.90;;;;;;5112944;27;20039;-65
2023/04/17 08:31:35;;;;;;;29.08;21.55;;;10.40;99.90;;;;;;5112428;27;20043;-67
2023/04/17 08:34:01;;;;;;;28.58;21.35;;;10.30;99.90;;;;;;5112694;27;20099;-67
2023/04/17 08:36:27;;;;;;;31.17;22.40;;;10.40;99.90;;;;;;5112681;27;20114;-68
2023/04/17 08:38:53;;;;;;;31.48;22.67;;;10.40;99.90;;;;;;5111933;27;20118;-67
2023/04/17 08:41:21;;;;;;;30.85;21.85;;;10.40;99.90;;;;;;5112259;27;20031;-67
2023/04/17 08:43:49;;;;;;;28.80;21.70;;;10.50;99.90;;;;;;5111926;27;20026;-66
2023/04/17 08:46:17;;;;;;;29.38;22.58;;;10.60;99.90;;;;;;5095753;28;20039;-66
2023/04/17 08:48:44;;;;;;;29.70;22.10;;;10.80;99.90;;;;;;5112660;27;20378;-65
2023/04/17 08:51:10;;;;;;;27.67;21.60;;;11.00;99.90;;;;;;5112838;27;20482;-66
2023/04/17 08:53:35;;;;;;;30.08;22.35;;;11.10;99.90;;;;;;5095018;27;20049;-66
2023/04/17 08:56:05;;;;;;;28.85;22.20;;;11.10;99.90;;;;;;5112207;27;20118;-66
2023/04/17 08:58:32;;;;;;;29.02;22.13;;;11.10;99.90;;;;;;5112404;27;20060;-65
2023/04/17 09:01:10;;;;;;;30.15;22.25;;;11.10;99.90;;;;;;5112236;27;20035;-67
2023/04/17 09:03:47;;;;;;;28.35;21.98;;;11.00;99.90;;;;;;5130617;27;20043;-66
2023/04/17 09:06:14;;;;;;;29.58;22.45;;;11.00;99.90;;;;;;5112359;27;20096;-67
2023/04/17 09:08:55;;;;;;;33.22;23.38;;;11.10;99.90;;;;;;5112416;27;20069;-66
2023/04/17 09:11:21;;;;;;;29.60;23.50;;;11.20;99.90;;;;;;5112327;28;20135;-67
2023/04/17 09:13:47;;;;;;;30.00;22.58;;;11.50;99.90;;;;;;5095007;27;20062;-66
2023/04/17 09:16:14;;;;;;;27.65;22.42;;;11.60;99.90;;;;;;5112274;28;20434;-67
2023/04/17 09:18:41;;;;;;;30.38;23.08;;;11.80;99.90;;;;;;5112452;28;20092;-66
2023/04/17 09:21:08;;;;;;;30.38;22.55;;;11.90;99.90;;;;;;5112585;28;20562;-64
2023/04/17 09:23:53;;;;;;;33.53;23.77;;;12.10;99.90;;;;;;5130802;27;20035;-65
2023/04/17 09:26:26;;;;;;;32.83;24.10;;;12.20;99.90;;;;;;5112280;28;20495;-67
2023/04/17 09:29:09;;;;;;;32.20;23.95;;;12.40;99.90;;;;;;5112070;27;20495;-66
2023/04/17 09:31:36;;;;;;;;;;;12.60;99.90;;;;;;5095467;27;20047;-66
2023/04/17 09:34:12;;;;;;;30.25;23.08;;;12.90;99.90;;;;;;5111715;27;19938;-66
2023/04/17 09:36:40;;;;;;;30.40;22.25;;;13.10;99.90;;;;;;5112415;27;20068;-67
2023/04/17 09:39:33;;;;;;;29.70;23.85;;;13.30;99.90;;;;;;5133921;27;20046;-68
2023/04/17 09:42:04;;;;;;;30.95;23.90;;;13.60;99.90;;;;;;5094480;27;20043;-67
2023/04/17 09:44:30;;;;;;;28.90;22.80;;;13.90;99.90;;;;;;5098385;27;20086;-67
2023/04/17 09:46:56;;;;;;;30.92;22.73;;;14.10;99.90;;;;;;5115496;27;20464;-65
2023/04/17 09:49:32;;;;;;;28.83;22.98;;;14.30;99.90;;;;;;5115697;27;20042;-65
2023/04/17 09:51:58;;;;;;;29.52;23.83;;;14.50;99.90;;;;;;5115188;27;20133;-70
2023/04/17 09:54:24;;;;;;;32.45;23.95;;;14.60;99.90;;;;;;5115402;27;20047;-67
2023/04/17 09:56:54;;;;;;;28.50;22.55;;;14.60;99.90;;;;;;5115458;27;20084;-67
2023/04/17 09:59:22;;;;;;;28.15;21.95;;;14.90;99.90;;;;;;5103383;27;20054;-65
2023/04/17 10:01:49;;;;;;;30.35;22.88;;;15.20;99.90;;;;;;5112526;27;20031;-68
2023/04/17 10:04:15;;;;;;;26.45;21.83;;;15.30;99.90;;;;;;5115096;27;20078;-66
2023/04/17 10:06:41;;;;;;;28.33;21.42;;;15.40;99.90;;;;;;5112714;27;20077;-66
2023/04/17 10:09:07;;;;;;;24.92;21.67;;;15.50;99.90;;;;;;5112484;27;20119;-64
2023/04/17 10:11:44;;;;;;;25.15;22.45;;;15.40;99.90;;;;;;5113453;27;20042;-65
2023/04/17 10:14:28;;;;;;;26.65;22.38;;;15.70;99.90;;;;;;5147075;27;20039;-66
2023/04/17 10:16:54;;;;;;;23.83;21.10;;;15.90;99.90;;;;;;5114488;27;20031;-64
2023/04/17 10:19:24;;;;;;;26.23;20.75;;;16.10;99.90;;;;;;5113479;27;20087;-67
2023/04/17 10:22:14;;;;;;;28.95;20.75;;;16.20;99.90;;;;;;5126131;27;20031;-65
2023/04/17 10:24:48;;;;;;;24.33;21.35;;;16.20;99.90;;;;;;5117815;27;20121;-66
2023/04/17 10:27:26;;;;;;;25.45;21.45;;;16.20;99.90;;;;;;5121244;27;20545;-65
2023/04/17 10:30:03;;;;;;;23.13;20.45;;;16.60;99.90;;;;;;5114079;27;20099;-66
2023/04/17 10:32:29;;;;;;;21.85;19.52;;;16.80;99.90;;;;;;5112763;27;20069;-66
2023/04/17 10:35:22;;;;;;;22.27;19.30;;;16.90;99.90;;;;;;5113751;27;20031;-70
2023/04/17 10:37:50;;;;;;;24.17;18.38;;;17.40;99.90;;;;;;5017586;28;20136;-67
2023/04/17 10:40:20;;;;;;;22.58;20.15;;;18.00;99.90;;;;;;5011481;28;20041;-66
2023/04/17 10:43:02;;;;;;;22.33;19.48;;;18.10;99.90;;;;;;5011364;28;20088;-69
2023/04/17 10:46:04;;;;;;;22.67;19.27;;;18.40;99.90;;;;;;5011852;28;20056;-66
2023/04/17 10:48:34;;;;;;;19.50;17.17;;;18.60;99.90;;;;;;5009707;28;20056;-68
2023/04/17 10:51:20;;;;;;;20.40;16.38;;;18.70;99.90;;;;;;5012160;28;20052;-70
2023/04/17 10:53:47;;;;;;;19.17;16.65;;;18.80;99.90;;;;;;4995930;28;20046;-67
2023/04/17 10:56:18;;;;;;;17.40;15.60;;;18.90;99.90;;;;;;5012978;28;20090;-65
2023/04/17 10:58:57;;;;;;;21.27;15.00;;;18.80;99.90;;;;;;5016887;28;20496;-64
2023/04/17 11:01:49;;;;;;;17.20;15.20;;;18.70;99.90;;;;;;5026845;28;20176;-67
2023/04/17 11:04:23;;;;;;;19.55;14.60;;;18.00;99.90;;;;;;5001118;28;20111;-66
2023/04/17 11:06:51;;;;;;;18.30;15.52;;;18.10;99.90;;;;;;5013748;28;20133;-64
2023/04/17 11:09:19;;;;;;;17.33;15.38;;;18.40;99.90;;;;;;5030563;28;20110;-66
2023/04/17 11:11:45;;;;;;;15.82;13.73;;;18.50;99.90;;;;;;5012633;28;20389;-69
2023/04/17 11:14:22;;;;;;;17.27;13.57;;;18.40;99.90;;;;;;5044674;27;20103;-66
2023/04/17 11:16:49;;;;;;;14.65;12.70;;;18.00;99.90;;;;;;5112237;27;20035;-66
2023/04/17 11:19:23;;;;;;;17.08;13.23;;;17.70;99.90;;;;;;5146098;27;20050;-64
2023/04/17 11:21:56;;;;;;;14.70;12.00;;;17.50;99.90;;;;;;5130808;27;20409;-65
2023/04/17 11:24:26;;;;;;;12.82;10.98;;;17.30;99.90;;;;;;5131659;27;20034;-68
2023/04/17 11:26:53;;;;;;;12.25;11.05;;;17.30;99.90;;;;;;5113393;27;20523;-64
2023/04/17 11:29:20;;;;;;;14.68;13.02;;;17.30;99.90;;;;;;5125467;27;20058;-65
2023/04/17 11:31:51;;;;;;;12.98;10.43;;;17.40;99.90;;;;;;5130401;27;20507;-66
2023/04/17 11:34:17;;;;;;;12.88;10.98;;;17.90;99.90;;;;;;5120148;27;20078;-65
2023/04/17 11:36:49;;;;;;;11.52;10.43;;;17.60;99.90;;;;;;5113785;27;20052;-65
2023/04/17 11:39:16;;;;;;;11.63;9.82;;;17.30;99.90;;;;;;5124233;27;20030;-67
2023/04/17 11:41:45;;;;;;;12.75;9.57;;;17.00;99.90;;;;;;5111070;27;20039;-67
2023/04/17 11:44:19;;;;;;;11.30;9.50;;;16.70;99.90;;;;;;5151431;27;20377;-65
2023/04/17 11:47:04;;;;;;;11.98;10.52;;;16.40;99.90;;;;;;5118828;27;20043;-65
2023/04/17 11:49:31;;;;;;;13.18;11.15;;;16.20;99.90;;;;;;5118660;27;20047;-68
2023/04/17 11:52:01;;;;;;;12.32;10.20;;;16.10;99.90;;;;;;5115687;27;20043;-68
2023/04/17 11:54:33;;;;;;;13.90;11.02;;;16.20;99.90;;;;;;5116245;27;20501;-66
2023/04/17 11:57:03;;;;;;;;;;;16.20;99.90;;;;;;5112285;27;20039;-66
2023/04/17 11:59:36;;;;;;;11.90;9.20;;;16.20;99.90;;;;;;5156938;27;19942;-68
2023/04/17 12:02:02;;;;;;;;;;;16.10;99.90;;;;;;5111879;27;20050;-68
2023/04/17 12:04:28;;;;;;;11.75;9.02;;;16.30;99.90;;;;;;5112276;27;19948;-69
2023/04/17 12:06:54;;;;;;;10.77;8.57;;;16.90;99.90;;;;;;5146588;27;20130;-65
2023/04/17 12:09:23;;;;;;;8.82;7.55;;;17.20;99.90;;;;;;5124426;27;20123;-65
2023/04/17 12:11:48;;;;;;;11.30;8.20;;;17.10;99.90;;;;;;5115725;27;20038;-69
2023/04/17 12:14:14;;;;;;;13.63;8.18;;;16.80;99.90;;;;;;5117890;27;20043;-67
2023/04/17 12:16:40;;;;;;;11.95;8.70;;;16.60;99.90;;;;;;5111771;27;20043;-65
2023/04/17 12:19:06;;;;;;;11.88;8.90;;;16.70;99.90;;;;;;5112498;27;20087;-66
2023/04/17 12:21:32;;;;;;;11.30;8.57;;;17.10;99.90;;;;;;5111886;27;20054;-66
2023/04/17 12:23:57;;;;;;;10.30;8.07;;;17.30;99.90;;;;;;5112490;27;20043;-67
2023/04/17 12:26:27;;;;;;;8.13;7.32;;;17.20;99.90;;;;;;5111841;27;20047;-66
2023/04/17 12:28:55;;;;;;;8.30;6.90;;;17.00;99.90;;;;;;5112054;27;20083;-68
2023/04/17 12:31:20;;;;;;;10.23;8.32;;;16.80;99.90;;;;;;5112329;27;20063;-67
2023/04/17 12:33:46;;;;;;;9.55;8.10;;;16.70;99.90;;;;;;5131568;27;20482;-67
2023/04/17 12:36:12;;;;;;;11.82;8.48;;;16.80;99.90;;;;;;5112632;27;20067;-66
2023/04/17 12:38:37;;;;;;;8.73;7.82;;;16.40;99.90;;;;;;5111880;27;20159;-66